createdAt,value
2019-01-27T00:04:48.509Z,43.80
2019-01-27T00:09:53.977Z,49.77
2019-01-27T00:14:57.281Z,43.77
2019-01-27T00:20:07.573Z,45.70
2019-01-27T00:25:17.389Z,42.97
2019-01-27T00:30:23.411Z,45.90
2019-01-27T00:35:26.705Z,41.70
2019-01-27T00:40:29.915Z,42.83
2019-01-27T00:45:33.399Z,38.33
2019-01-27T00:50:36.840Z,40.80
2019-01-27T00:55:40.178Z,36.40
2019-01-27T01:00:43.351Z,36.37
2019-01-27T01:05:47.488Z,35.93
2019-01-27T01:10:50.799Z,30.57
2019-01-27T01:15:57.209Z,30.03
2019-01-27T01:21:00.697Z,28.57
2019-01-27T01:26:04.142Z,27.00
2019-01-27T01:31:07.693Z,29.10
2019-01-27T01:36:11.058Z,28.13
2019-01-27T01:41:16.467Z,32.00
2019-01-27T01:46:19.906Z,25.73
2019-01-27T01:51:24.255Z,27.00
2019-01-27T01:56:27.422Z,25.50
2019-01-27T02:01:30.685Z,24.07
2019-01-27T02:06:34.249Z,25.07
2019-01-27T02:11:43.176Z,29.07
2019-01-27T02:16:46.565Z,24.33
2019-01-27T02:21:58.959Z,22.63
2019-01-27T02:27:02.440Z,24.50
2019-01-27T02:32:05.700Z,23.17
2019-01-27T02:37:12.233Z,24.30
2019-01-27T02:42:16.027Z,21.57
2019-01-27T02:47:19.162Z,21.53
2019-01-27T02:52:22.505Z,20.43
2019-01-27T02:57:28.566Z,20.63
2019-01-27T03:02:34.651Z,17.60
2019-01-27T03:07:38.727Z,19.70
2019-01-27T03:12:42.210Z,17.33
2019-01-27T03:17:45.884Z,15.83
2019-01-27T03:22:53.307Z,15.57
2019-01-27T03:27:56.704Z,15.70
2019-01-27T03:33:03.132Z,15.77
2019-01-27T03:38:06.603Z,15.20
2019-01-27T03:43:09.869Z,14.93
2019-01-27T03:48:13.148Z,13.60
2019-01-27T03:53:16.736Z,12.83
2019-01-27T03:58:19.982Z,13.90
2019-01-27T04:03:23.329Z,12.17
2019-01-27T04:08:26.875Z,12.10
2019-01-27T04:13:36.740Z,10.60
2019-01-27T04:18:42.915Z,11.40
2019-01-27T04:23:46.226Z,12.30
2019-01-27T04:28:50.703Z,11.90
2019-01-27T04:33:57.663Z,11.63
2019-01-27T04:39:01.045Z,11.53
2019-01-27T04:44:05.194Z,10.90
2019-01-27T04:49:08.577Z,10.33
2019-01-27T04:54:15.201Z,11.40
2019-01-27T04:59:21.514Z,10.53
2019-01-27T05:04:35.832Z,10.43
2019-01-27T05:09:39.291Z,9.90
2019-01-27T05:14:45.356Z,11.67
2019-01-27T05:19:48.597Z,11.20
2019-01-27T05:24:57.948Z,11.60
2019-01-27T05:30:03.355Z,10.37
2019-01-27T05:35:06.579Z,12.73
2019-01-27T05:40:10.635Z,11.17
2019-01-27T05:45:19.021Z,11.13
2019-01-27T05:50:22.462Z,9.20
2019-01-27T05:55:25.849Z,11.10
2019-01-27T06:00:41.256Z,9.70
2019-01-27T06:05:44.478Z,10.73
2019-01-27T06:10:47.816Z,10.60
2019-01-27T06:15:51.387Z,10.93
2019-01-27T06:20:54.689Z,9.10
2019-01-27T06:25:59.504Z,11.03
2019-01-27T06:31:02.789Z,10.37
2019-01-27T06:36:08.978Z,11.47
2019-01-27T06:41:13.538Z,9.57
2019-01-27T06:46:18.924Z,8.70
2019-01-27T06:51:22.234Z,9.63
2019-01-27T06:56:27.329Z,9.70
2019-01-27T07:01:56.706Z,9.50
2019-01-27T07:07:26.639Z,8.87
2019-01-27T07:12:52.272Z,8.70
2019-01-27T07:18:13.640Z,8.50
2019-01-27T07:23:42.015Z,9.57
2019-01-27T07:29:07.676Z,7.90
2019-01-27T07:34:30.412Z,8.20
2019-01-27T07:40:05.160Z,8.13
2019-01-27T07:45:21.989Z,6.80
2019-01-27T07:50:53.494Z,8.20
2019-01-27T07:56:15.098Z,7.60
2019-01-27T08:01:24.965Z,7.43
2019-01-27T08:06:46.399Z,6.97
2019-01-27T08:12:12.237Z,8.10
2019-01-27T08:17:51.842Z,6.90
2019-01-27T08:23:02.890Z,7.17
2019-01-27T08:28:19.509Z,9.13
2019-01-27T08:33:52.460Z,7.53
2019-01-27T08:39:19.074Z,7.43
2019-01-27T08:44:31.600Z,7.10
2019-01-27T08:49:35.113Z,7.77
2019-01-27T08:54:38.476Z,6.73
2019-01-27T08:59:42.148Z,6.90
2019-01-27T09:04:50.305Z,6.40
2019-01-27T09:10:02.907Z,6.43
2019-01-27T09:15:29.147Z,6.10
2019-01-27T09:20:51.914Z,6.57
2019-01-27T09:26:02.595Z,5.10
2019-01-27T09:31:33.965Z,6.00
2019-01-27T09:37:01.853Z,6.10
2019-01-27T09:42:13.152Z,5.90
2019-01-27T09:47:34.176Z,4.90
2019-01-27T09:52:59.705Z,5.27
2019-01-27T09:58:22.574Z,6.43
2019-01-27T10:03:45.345Z,5.10
2019-01-27T10:09:01.758Z,4.77
2019-01-27T10:14:20.633Z,5.00
2019-01-27T10:19:44.464Z,4.33
2019-01-27T10:25:07.430Z,4.80
2019-01-27T10:30:36.920Z,4.03
2019-01-27T10:36:09.411Z,4.27
2019-01-27T10:41:32.591Z,3.60
2019-01-27T10:46:46.243Z,3.80
2019-01-27T10:52:20.785Z,3.80
2019-01-27T10:57:52.667Z,3.83
2019-01-27T11:03:21.201Z,3.43
2019-01-27T11:09:02.467Z,3.43
2019-01-27T11:14:38.748Z,3.83
2019-01-27T11:20:07.354Z,3.27
2019-01-27T11:25:42.410Z,3.90
2019-01-27T11:31:03.843Z,3.47
2019-01-27T11:36:16.063Z,3.20
2019-01-27T11:41:38.524Z,2.90
2019-01-27T11:47:02.314Z,6.23
2019-01-27T11:52:15.405Z,3.20
2019-01-27T11:57:15.909Z,3.03
2019-01-27T12:02:22.419Z,3.20
2019-01-27T12:07:25.749Z,2.97
2019-01-27T12:12:32.380Z,2.63
2019-01-27T12:17:35.820Z,4.87
2019-01-27T12:22:39.165Z,2.53
2019-01-27T12:27:42.551Z,2.87
2019-01-27T12:32:46.135Z,2.60
2019-01-27T12:37:49.716Z,3.10
2019-01-27T12:42:54.389Z,3.63
2019-01-27T12:47:57.907Z,2.90
2019-01-27T12:53:01.349Z,2.50
2019-01-27T12:58:07.325Z,3.63
2019-01-27T13:03:21.442Z,2.30
2019-01-27T13:08:25.951Z,2.50
2019-01-27T13:13:29.292Z,4.00
2019-01-27T13:18:32.548Z,3.57
2019-01-27T13:23:35.862Z,2.80
2019-01-27T13:28:39.374Z,4.30
2019-01-27T13:33:42.791Z,4.17
2019-01-27T13:38:51.224Z,2.93
2019-01-27T13:43:53.509Z,2.57
2019-01-27T13:48:57.066Z,2.53
2019-01-27T13:54:00.810Z,2.53
2019-01-27T13:59:04.425Z,2.20
2019-01-27T14:04:07.940Z,2.80
2019-01-27T14:09:11.867Z,1.77
2019-01-27T14:14:16.904Z,3.53
2019-01-27T14:19:20.319Z,3.43
2019-01-27T14:24:23.879Z,2.23
2019-01-27T14:29:27.464Z,1.90
2019-01-27T14:34:30.567Z,1.77
2019-01-27T14:39:33.971Z,2.90
2019-01-27T14:44:40.389Z,2.17
2019-01-27T14:49:43.703Z,1.97
2019-01-27T14:54:48.827Z,4.30
2019-01-27T14:59:52.257Z,2.30
2019-01-27T15:04:55.754Z,2.90
2019-01-27T15:10:01.115Z,2.87
2019-01-27T15:15:05.891Z,3.23
2019-01-27T15:25:28.507Z,3.70
2019-01-27T15:30:31.996Z,5.27
2019-01-27T15:35:35.805Z,3.30
2019-01-27T15:52:00.522Z,3.30
2019-01-27T15:57:58.206Z,4.63
2019-01-27T16:03:55.810Z,4.43
2019-01-27T16:09:57.403Z,4.80
2019-01-27T16:14:59.654Z,3.90
2019-01-27T16:20:57.031Z,4.10
2019-01-27T16:32:11.740Z,4.57
2019-01-27T16:38:09.711Z,3.90
2019-01-27T16:44:09.154Z,4.17
2019-01-27T16:50:06.846Z,5.10
2019-01-27T16:56:04.657Z,5.43
2019-01-27T17:02:02.306Z,5.90
2019-01-27T17:07:59.958Z,6.60
2019-01-27T17:13:02.785Z,6.10
2019-01-27T17:19:00.351Z,4.70
2019-01-27T17:24:58.826Z,4.60
2019-01-27T17:30:56.602Z,4.87
2019-01-27T17:36:54.798Z,5.13
2019-01-27T17:42:52.352Z,6.80
2019-01-27T17:48:49.343Z,5.53
2019-01-27T17:54:46.893Z,12.40
2019-01-27T18:00:44.515Z,5.47
2019-01-27T18:06:42.083Z,6.57
2019-01-27T18:12:05.462Z,6.30
2019-01-27T18:18:03.045Z,9.53
2019-01-27T18:24:00.510Z,7.20
2019-01-27T18:29:03.298Z,7.07
2019-01-27T18:35:00.878Z,7.93
2019-01-27T18:40:58.415Z,9.03
2019-01-27T18:46:56.192Z,8.47
2019-01-27T18:52:53.761Z,7.40
2019-01-27T18:58:51.317Z,10.63
2019-01-27T19:04:50.061Z,8.40
2019-01-27T19:10:18.253Z,9.07
2019-01-27T19:16:16.123Z,9.70
2019-01-27T19:22:13.728Z,7.97
2019-01-27T19:28:11.468Z,9.10
2019-01-27T19:34:09.098Z,9.63
2019-01-27T19:40:06.432Z,11.70
2019-01-27T19:46:03.534Z,12.90
2019-01-27T19:52:00.843Z,12.10
2019-01-27T19:57:57.949Z,12.87
2019-01-27T20:03:55.475Z,16.57
2019-01-27T20:09:53.241Z,15.87
2019-01-27T20:15:05.709Z,15.90
2019-01-27T20:21:02.946Z,15.23
2019-01-27T20:33:04.046Z,19.77
2019-01-27T20:39:01.924Z,19.60
2019-01-27T20:51:02.856Z,19.03
2019-01-27T20:57:00.844Z,23.00
2019-01-27T21:02:58.949Z,21.23
2019-01-27T21:08:21.398Z,18.80
2019-01-27T21:14:19.577Z,21.03
2019-01-27T21:20:17.177Z,17.17
2019-01-27T21:26:15.068Z,20.23
2019-01-27T21:32:12.784Z,15.27
2019-01-27T21:38:10.641Z,14.47
2019-01-27T21:44:08.532Z,17.70
2019-01-27T21:50:06.422Z,14.67
2019-01-27T21:56:04.311Z,20.67
2019-01-27T22:01:43.769Z,16.97
2019-01-27T22:06:47.316Z,16.43
2019-01-27T22:12:45.584Z,14.20
2019-01-27T22:18:43.199Z,11.23
2019-01-27T22:24:40.955Z,19.67
2019-01-27T22:30:38.639Z,10.13
2019-01-27T22:36:36.162Z,9.13
2019-01-27T22:42:34.113Z,12.37
2019-01-27T22:48:31.796Z,8.07
2019-01-27T22:54:29.584Z,7.00
2019-01-27T23:00:27.574Z,7.07
2019-01-27T23:06:25.378Z,13.00
2019-01-27T23:11:28.841Z,13.03
2019-01-27T23:17:26.764Z,19.17
2019-01-27T23:23:24.309Z,12.90
2019-01-27T23:29:22.340Z,12.50
2019-01-27T23:35:20.130Z,12.53
2019-01-27T23:41:18.021Z,13.83
2019-01-27T23:47:15.702Z,13.60
2019-01-27T23:53:13.592Z,16.97
2019-01-27T23:59:11.286Z,14.57
